sensor_id;sensor_type;location;lat;lon;timestamp;temperature;humidity
46416;DHT22;32620;51.704;7.822;2023-02-28T00:00:24;0.70;99.90
46416;DHT22;32620;51.704;7.822;2023-02-28T00:02:50;0.60;99.90
46416;DHT22;32620;51.704;7.822;2023-02-28T00:05:19;0.50;99.90
46416;DHT22;32620;51.704;7.822;2023-02-28T00:07:45;0.40;99.90
46416;DHT22;32620;51.704;7.822;2023-02-28T00:10:14;0.40;99.90
46416;DHT22;32620;51.704;7.822;2023-02-28T00:12:40;0.30;99.90
46416;DHT22;32620;51.704;7.822;2023-02-28T00:15:08;0.20;99.90
46416;DHT22;32620;51.704;7.822;2023-02-28T00:17:33;0.10;99.90
46416;DHT22;32620;51.704;7.822;2023-02-28T00:19:59;0.00;99.90
46416;DHT22;32620;51.704;7.822;2023-02-28T00:22:38;-0.10;99.90
46416;DHT22;32620;51.704;7.822;2023-02-28T00:25:04;-0.10;99.90
46416;DHT22;32620;51.704;7.822;2023-02-28T00:27:30;-0.30;99.90
46416;DHT22;32620;51.704;7.822;2023-02-28T00:29:56;-0.40;99.90
46416;DHT22;32620;51.704;7.822;2023-02-28T00:32:21;-0.50;99.90
46416;DHT22;32620;51.704;7.822;2023-02-28T00:34:47;-0.60;99.90
46416;DHT22;32620;51.704;7.822;2023-02-28T00:37:13;-0.80;99.90
46416;DHT22;32620;51.704;7.822;2023-02-28T00:39:39;-0.90;99.90
46416;DHT22;32620;51.704;7.822;2023-02-28T00:42:06;-0.90;99.90
46416;DHT22;32620;51.704;7.822;2023-02-28T00:44:32;-1.00;99.90
46416;DHT22;32620;51.704;7.822;2023-02-28T00:46:58;-1.00;99.90
46416;DHT22;32620;51.704;7.822;2023-02-28T00:49:25;-0.80;99.90
46416;DHT22;32620;51.704;7.822;2023-02-28T00:51:52;-0.80;99.90
46416;DHT22;32620;51.704;7.822;2023-02-28T00:54:18;-0.50;99.90
46416;DHT22;32620;51.704;7.822;2023-02-28T00:56:43;-0.40;99.90
46416;DHT22;32620;51.704;7.822;2023-02-28T00:59:11;-0.20;99.90
46416;DHT22;32620;51.704;7.822;2023-02-28T01:01:37;0.00;99.90
46416;DHT22;32620;51.704;7.822;2023-02-28T01:04:03;0.10;99.90
46416;DHT22;32620;51.704;7.822;2023-02-28T01:06:28;0.10;99.90
46416;DHT22;32620;51.704;7.822;2023-02-28T01:08:54;0.10;99.90
46416;DHT22;32620;51.704;7.822;2023-02-28T01:11:19;0.10;99.90
46416;DHT22;32620;51.704;7.822;2023-02-28T01:13:46;0.10;99.90
46416;DHT22;32620;51.704;7.822;2023-02-28T01:16:13;0.10;99.90
46416;DHT22;32620;51.704;7.822;2023-02-28T01:18:39;-0.10;99.90
46416;DHT22;32620;51.704;7.822;2023-02-28T01:21:05;-0.30;99.90
46416;DHT22;32620;51.704;7.822;2023-02-28T01:23:31;-0.60;99.90
46416;DHT22;32620;51.704;7.822;2023-02-28T01:25:57;-0.80;99.90
46416;DHT22;32620;51.704;7.822;2023-02-28T01:28:23;-1.00;99.90
46416;DHT22;32620;51.704;7.822;2023-02-28T01:30:49;-1.10;99.90
46416;DHT22;32620;51.704;7.822;2023-02-28T01:33:15;-1.20;99.90
46416;DHT22;32620;51.704;7.822;2023-02-28T01:35:40;-1.30;99.90
46416;DHT22;32620;51.704;7.822;2023-02-28T01:38:06;-1.40;99.90
46416;DHT22;32620;51.704;7.822;2023-02-28T01:40:32;-1.40;99.90
46416;DHT22;32620;51.704;7.822;2023-02-28T01:42:58;-1.40;99.90
46416;DHT22;32620;51.704;7.822;2023-02-28T01:45:27;-1.40;99.90
46416;DHT22;32620;51.704;7.822;2023-02-28T01:47:59;-1.40;99.90
46416;DHT22;32620;51.704;7.822;2023-02-28T01:50:29;-1.50;99.90
46416;DHT22;32620;51.704;7.822;2023-02-28T01:52:59;-1.50;99.90
46416;DHT22;32620;51.704;7.822;2023-02-28T01:55:26;-1.50;99.90
46416;DHT22;32620;51.704;7.822;2023-02-28T01:57:57;-1.50;99.90
46416;DHT22;32620;51.704;7.822;2023-02-28T02:00:26;-1.60;99.90
46416;DHT22;32620;51.704;7.822;2023-02-28T02:02:55;-1.60;99.90
46416;DHT22;32620;51.704;7.822;2023-02-28T02:05:25;-1.70;99.90
46416;DHT22;32620;51.704;7.822;2023-02-28T02:07:55;-1.70;99.90
46416;DHT22;32620;51.704;7.822;2023-02-28T02:10:33;-1.70;99.90
46416;DHT22;32620;51.704;7.822;2023-02-28T02:16:01;-1.80;99.90
46416;DHT22;32620;51.704;7.822;2023-02-28T02:18:51;-1.80;99.90
46416;DHT22;32620;51.704;7.822;2023-02-28T02:21:58;-1.90;99.90
46416;DHT22;32620;51.704;7.822;2023-02-28T02:25:06;-2.00;99.90
46416;DHT22;32620;51.704;7.822;2023-02-28T02:27:32;-2.10;99.90
46416;DHT22;32620;51.704;7.822;2023-02-28T02:30:14;-2.10;99.90
46416;DHT22;32620;51.704;7.822;2023-02-28T02:33:06;-2.10;99.90
46416;DHT22;32620;51.704;7.822;2023-02-28T02:36:00;-2.30;99.90
46416;DHT22;32620;51.704;7.822;2023-02-28T02:41:24;-2.30;99.90
46416;DHT22;32620;51.704;7.822;2023-02-28T02:43:58;-2.30;99.90
46416;DHT22;32620;51.704;7.822;2023-02-28T02:46:32;-2.00;99.90
46416;DHT22;32620;51.704;7.822;2023-02-28T02:49:00;-1.80;99.90
46416;DHT22;32620;51.704;7.822;2023-02-28T02:51:30;-1.70;99.90
46416;DHT22;32620;51.704;7.822;2023-02-28T02:54:06;-1.50;99.90
46416;DHT22;32620;51.704;7.822;2023-02-28T02:56:34;-1.40;99.90
46416;DHT22;32620;51.704;7.822;2023-02-28T02:59:03;-1.30;99.90
46416;DHT22;32620;51.704;7.822;2023-02-28T03:01:31;-1.20;99.90
46416;DHT22;32620;51.704;7.822;2023-02-28T03:03:59;-1.20;99.90
46416;DHT22;32620;51.704;7.822;2023-02-28T03:06:26;-1.10;99.90
46416;DHT22;32620;51.704;7.822;2023-02-28T03:08:52;-1.00;99.90
46416;DHT22;32620;51.704;7.822;2023-02-28T03:11:18;-1.10;99.90
46416;DHT22;32620;51.704;7.822;2023-02-28T03:14:33;-1.10;99.90
46416;DHT22;32620;51.704;7.822;2023-02-28T03:17:39;-1.00;99.90
46416;DHT22;32620;51.704;7.822;2023-02-28T03:22:52;-1.10;99.90
46416;DHT22;32620;51.704;7.822;2023-02-28T03:25:47;-1.10;99.90
46416;DHT22;32620;51.704;7.822;2023-02-28T03:28:42;-1.10;99.90
46416;DHT22;32620;51.704;7.822;2023-02-28T03:31:16;-1.00;99.90
46416;DHT22;32620;51.704;7.822;2023-02-28T03:33:56;-0.90;99.90
46416;DHT22;32620;51.704;7.822;2023-02-28T03:36:29;-0.80;99.90
46416;DHT22;32620;51.704;7.822;2023-02-28T03:39:01;-0.80;99.90
46416;DHT22;32620;51.704;7.822;2023-02-28T03:41:35;-0.70;99.90
46416;DHT22;32620;51.704;7.822;2023-02-28T03:44:09;-0.70;99.90
46416;DHT22;32620;51.704;7.822;2023-02-28T03:46:44;-0.70;99.90
46416;DHT22;32620;51.704;7.822;2023-02-28T03:49:18;-0.70;99.90
46416;DHT22;32620;51.704;7.822;2023-02-28T03:51:46;-0.80;99.90
46416;DHT22;32620;51.704;7.822;2023-02-28T03:54:47;-0.90;99.90
46416;DHT22;32620;51.704;7.822;2023-02-28T03:57:04;-0.90;99.90
46416;DHT22;32620;51.704;7.822;2023-02-28T03:59:37;-0.90;99.90
46416;DHT22;32620;51.704;7.822;2023-02-28T04:02:05;-0.90;99.90
46416;DHT22;32620;51.704;7.822;2023-02-28T04:04:30;-1.00;99.90
46416;DHT22;32620;51.704;7.822;2023-02-28T04:07:07;-1.00;99.90
46416;DHT22;32620;51.704;7.822;2023-02-28T04:09:33;-0.90;99.90
46416;DHT22;32620;51.704;7.822;2023-02-28T04:11:58;-0.90;99.90
46416;DHT22;32620;51.704;7.822;2023-02-28T04:14:24;-1.00;99.90
46416;DHT22;32620;51.704;7.822;2023-02-28T04:16:50;-1.10;99.90
46416;DHT22;32620;51.704;7.822;2023-02-28T04:19:16;-1.10;99.90
46416;DHT22;32620;51.704;7.822;2023-02-28T04:21:44;-1.00;99.90
46416;DHT22;32620;51.704;7.822;2023-02-28T04:24:12;-0.90;99.90
46416;DHT22;32620;51.704;7.822;2023-02-28T04:26:41;-0.90;99.90
46416;DHT22;32620;51.704;7.822;2023-02-28T04:29:09;-0.90;99.90
46416;DHT22;32620;51.704;7.822;2023-02-28T04:31:35;-1.00;99.90
46416;DHT22;32620;51.704;7.822;2023-02-28T04:34:01;-1.00;99.90
46416;DHT22;32620;51.704;7.822;2023-02-28T04:36:27;-1.00;99.90
46416;DHT22;32620;51.704;7.822;2023-02-28T04:38:53;-1.00;99.90
46416;DHT22;32620;51.704;7.822;2023-02-28T04:41:20;-1.00;99.90
46416;DHT22;32620;51.704;7.822;2023-02-28T04:43:45;-1.10;99.90
46416;DHT22;32620;51.704;7.822;2023-02-28T04:46:11;-1.10;99.90
46416;DHT22;32620;51.704;7.822;2023-02-28T04:48:38;-1.00;99.90
46416;DHT22;32620;51.704;7.822;2023-02-28T04:51:07;-1.00;99.90
46416;DHT22;32620;51.704;7.822;2023-02-28T04:53:33;-1.00;99.90
46416;DHT22;32620;51.704;7.822;2023-02-28T04:56:00;-1.00;99.90
46416;DHT22;32620;51.704;7.822;2023-02-28T04:58:26;-1.10;99.90
46416;DHT22;32620;51.704;7.822;2023-02-28T05:00:52;-1.30;99.90
46416;DHT22;32620;51.704;7.822;2023-02-28T05:03:18;-1.50;99.90
46416;DHT22;32620;51.704;7.822;2023-02-28T05:05:44;-1.80;99.90
46416;DHT22;32620;51.704;7.822;2023-02-28T05:08:10;-2.10;99.90
46416;DHT22;32620;51.704;7.822;2023-02-28T05:10:36;-2.30;99.90
46416;DHT22;32620;51.704;7.822;2023-02-28T05:13:01;-2.40;99.90
46416;DHT22;32620;51.704;7.822;2023-02-28T05:15:27;-2.40;99.90
46416;DHT22;32620;51.704;7.822;2023-02-28T05:17:52;-2.40;99.90
46416;DHT22;32620;51.704;7.822;2023-02-28T05:20:18;-2.00;99.90
46416;DHT22;32620;51.704;7.822;2023-02-28T05:22:44;-1.50;99.90
46416;DHT22;32620;51.704;7.822;2023-02-28T05:25:13;-1.40;99.90
46416;DHT22;32620;51.704;7.822;2023-02-28T05:27:41;-1.30;99.90
46416;DHT22;32620;51.704;7.822;2023-02-28T05:30:07;-1.30;99.90
46416;DHT22;32620;51.704;7.822;2023-02-28T05:32:38;-1.20;99.90
46416;DHT22;32620;51.704;7.822;2023-02-28T05:35:09;-1.10;99.90
46416;DHT22;32620;51.704;7.822;2023-02-28T05:37:34;-1.20;99.90
46416;DHT22;32620;51.704;7.822;2023-02-28T05:40:00;-1.20;99.90
46416;DHT22;32620;51.704;7.822;2023-02-28T05:42:25;-1.20;99.90
46416;DHT22;32620;51.704;7.822;2023-02-28T05:44:51;-1.10;99.90
46416;DHT22;32620;51.704;7.822;2023-02-28T05:47:17;-1.10;99.90
46416;DHT22;32620;51.704;7.822;2023-02-28T05:49:42;-1.20;99.90
46416;DHT22;32620;51.704;7.822;2023-02-28T05:52:08;-1.10;99.90
46416;DHT22;32620;51.704;7.822;2023-02-28T05:54:34;-1.20;99.90
46416;DHT22;32620;51.704;7.822;2023-02-28T05:56:59;-1.20;99.90
46416;DHT22;32620;51.704;7.822;2023-02-28T05:59:25;-1.10;99.90
46416;DHT22;32620;51.704;7.822;2023-02-28T06:01:50;-1.20;99.90
46416;DHT22;32620;51.704;7.822;2023-02-28T06:04:19;-1.20;99.90
46416;DHT22;32620;51.704;7.822;2023-02-28T06:06:46;-1.20;99.90
46416;DHT22;32620;51.704;7.822;2023-02-28T06:09:12;-1.10;99.90
46416;DHT22;32620;51.704;7.822;2023-02-28T06:11:37;-1.10;99.90
46416;DHT22;32620;51.704;7.822;2023-02-28T06:14:03;-1.10;99.90
46416;DHT22;32620;51.704;7.822;2023-02-28T06:16:31;-1.20;99.90
46416;DHT22;32620;51.704;7.822;2023-02-28T06:18:58;-1.20;99.90
46416;DHT22;32620;51.704;7.822;2023-02-28T06:21:24;-1.20;99.90
46416;DHT22;32620;51.704;7.822;2023-02-28T06:23:50;-1.30;99.90
46416;DHT22;32620;51.704;7.822;2023-02-28T06:26:16;-1.30;99.90
46416;DHT22;32620;51.704;7.822;2023-02-28T06:28:42;-1.20;99.90
46416;DHT22;32620;51.704;7.822;2023-02-28T06:31:09;-1.30;99.90
46416;DHT22;32620;51.704;7.822;2023-02-28T06:33:36;-1.30;99.90
46416;DHT22;32620;51.704;7.822;2023-02-28T06:36:02;-1.20;99.90
46416;DHT22;32620;51.704;7.822;2023-02-28T06:38:27;-1.20;99.90
46416;DHT22;32620;51.704;7.822;2023-02-28T06:40:54;-1.20;99.90
46416;DHT22;32620;51.704;7.822;2023-02-28T06:43:20;-1.20;99.90
46416;DHT22;32620;51.704;7.822;2023-02-28T06:45:46;-1.20;99.90
46416;DHT22;32620;51.704;7.822;2023-02-28T06:48:12;-1.10;99.90
46416;DHT22;32620;51.704;7.822;2023-02-28T06:50:38;-1.10;99.90
46416;DHT22;32620;51.704;7.822;2023-02-28T06:53:03;-1.10;99.90
46416;DHT22;32620;51.704;7.822;2023-02-28T06:55:29;-1.10;99.90
46416;DHT22;32620;51.704;7.822;2023-02-28T06:57:54;-1.10;99.90
46416;DHT22;32620;51.704;7.822;2023-02-28T07:00:20;-1.10;99.90
46416;DHT22;32620;51.704;7.822;2023-02-28T07:02:46;-1.10;99.90
46416;DHT22;32620;51.704;7.822;2023-02-28T07:05:12;-1.00;99.90
46416;DHT22;32620;51.704;7.822;2023-02-28T07:07:38;-0.30;99.90
46416;DHT22;32620;51.704;7.822;2023-02-28T07:10:06;0.10;99.90
46416;DHT22;32620;51.704;7.822;2023-02-28T07:12:32;0.90;99.90
46416;DHT22;32620;51.704;7.822;2023-02-28T07:14:57;2.00;99.90
46416;DHT22;32620;51.704;7.822;2023-02-28T07:17:23;2.50;99.90
46416;DHT22;32620;51.704;7.822;2023-02-28T07:19:48;3.40;99.90
46416;DHT22;32620;51.704;7.822;2023-02-28T07:22:14;4.40;99.90
46416;DHT22;32620;51.704;7.822;2023-02-28T07:24:39;4.90;99.90
46416;DHT22;32620;51.704;7.822;2023-02-28T07:27:04;6.40;99.90
46416;DHT22;32620;51.704;7.822;2023-02-28T07:29:30;6.80;99.90
46416;DHT22;32620;51.704;7.822;2023-02-28T07:31:56;7.70;99.90
46416;DHT22;32620;51.704;7.822;2023-02-28T07:34:22;8.50;99.90
46416;DHT22;32620;51.704;7.822;2023-02-28T07:36:48;8.30;99.90
46416;DHT22;32620;51.704;7.822;2023-02-28T07:39:13;8.20;99.90
46416;DHT22;32620;51.704;7.822;2023-02-28T07:41:39;8.00;99.90
46416;DHT22;32620;51.704;7.822;2023-02-28T07:44:10;8.30;99.90
46416;DHT22;32620;51.704;7.822;2023-02-28T07:46:35;7.80;99.90
46416;DHT22;32620;51.704;7.822;2023-02-28T07:49:02;8.70;99.90
46416;DHT22;32620;51.704;7.822;2023-02-28T07:51:29;8.80;99.90
46416;DHT22;32620;51.704;7.822;2023-02-28T07:53:54;7.90;99.90
46416;DHT22;32620;51.704;7.822;2023-02-28T07:56:20;8.40;99.90
46416;DHT22;32620;51.704;7.822;2023-02-28T07:58:45;7.00;99.90
46416;DHT22;32620;51.704;7.822;2023-02-28T08:01:12;8.10;99.90
46416;DHT22;32620;51.704;7.822;2023-02-28T08:03:38;8.60;99.10
46416;DHT22;32620;51.704;7.822;2023-02-28T08:06:06;8.60;98.80
46416;DHT22;32620;51.704;7.822;2023-02-28T08:08:32;8.90;98.40
46416;DHT22;32620;51.704;7.822;2023-02-28T08:10:59;9.00;97.40
46416;DHT22;32620;51.704;7.822;2023-02-28T08:13:26;9.80;97.10
46416;DHT22;32620;51.704;7.822;2023-02-28T08:15:53;9.40;96.00
46416;DHT22;32620;51.704;7.822;2023-02-28T08:18:20;9.60;96.00
46416;DHT22;32620;51.704;7.822;2023-02-28T08:20:45;8.60;97.40
46416;DHT22;32620;51.704;7.822;2023-02-28T08:23:11;9.40;96.00
46416;DHT22;32620;51.704;7.822;2023-02-28T08:25:36;9.60;96.60
46416;DHT22;32620;51.704;7.822;2023-02-28T08:28:02;9.90;95.10
46416;DHT22;32620;51.704;7.822;2023-02-28T08:30:27;10.00;94.60
46416;DHT22;32620;51.704;7.822;2023-02-28T08:32:54;8.40;95.30
46416;DHT22;32620;51.704;7.822;2023-02-28T08:35:20;8.80;96.50
46416;DHT22;32620;51.704;7.822;2023-02-28T08:37:48;8.50;95.10
46416;DHT22;32620;51.704;7.822;2023-02-28T08:40:14;7.90;96.60
46416;DHT22;32620;51.704;7.822;2023-02-28T08:42:44;7.90;96.10
46416;DHT22;32620;51.704;7.822;2023-02-28T08:45:10;7.00;97.30
46416;DHT22;32620;51.704;7.822;2023-02-28T08:47:36;6.70;97.00
46416;DHT22;32620;51.704;7.822;2023-02-28T08:50:01;7.20;97.80
46416;DHT22;32620;51.704;7.822;2023-02-28T08:52:27;7.40;96.80
46416;DHT22;32620;51.704;7.822;2023-02-28T08:54:52;8.00;95.30
46416;DHT22;32620;51.704;7.822;2023-02-28T08:57:18;8.80;95.10
46416;DHT22;32620;51.704;7.822;2023-02-28T08:59:43;7.80;95.40
46416;DHT22;32620;51.704;7.822;2023-02-28T09:02:12;8.20;95.30
46416;DHT22;32620;51.704;7.822;2023-02-28T09:04:37;8.00;95.60
46416;DHT22;32620;51.704;7.822;2023-02-28T09:07:03;8.20;95.80
46416;DHT22;32620;51.704;7.822;2023-02-28T09:09:29;8.40;94.50
46416;DHT22;32620;51.704;7.822;2023-02-28T09:11:56;8.60;95.20
46416;DHT22;32620;51.704;7.822;2023-02-28T09:14:21;9.00;93.60
46416;DHT22;32620;51.704;7.822;2023-02-28T09:16:47;8.20;94.20
46416;DHT22;32620;51.704;7.822;2023-02-28T09:19:12;8.30;94.40
46416;DHT22;32620;51.704;7.822;2023-02-28T09:21:38;8.70;93.70
46416;DHT22;32620;51.704;7.822;2023-02-28T09:24:04;7.70;94.80
46416;DHT22;32620;51.704;7.822;2023-02-28T09:26:30;7.80;94.80
46416;DHT22;32620;51.704;7.822;2023-02-28T09:28:55;8.80;93.70
46416;DHT22;32620;51.704;7.822;2023-02-28T09:31:24;9.10;93.00
46416;DHT22;32620;51.704;7.822;2023-02-28T09:33:51;9.20;92.30
46416;DHT22;32620;51.704;7.822;2023-02-28T09:36:17;9.30;94.60
46416;DHT22;32620;51.704;7.822;2023-02-28T09:38:44;9.00;90.70
46416;DHT22;32620;51.704;7.822;2023-02-28T09:41:26;9.10;90.40
46416;DHT22;32620;51.704;7.822;2023-02-28T09:43:55;8.90;90.50
46416;DHT22;32620;51.704;7.822;2023-02-28T09:46:40;8.80;90.70
46416;DHT22;32620;51.704;7.822;2023-02-28T09:49:14;8.90;89.80
46416;DHT22;32620;51.704;7.822;2023-02-28T09:51:44;8.80;90.10
46416;DHT22;32620;51.704;7.822;2023-02-28T09:54:21;9.60;90.00
46416;DHT22;32620;51.704;7.822;2023-02-28T09:56:53;9.20;86.20
46416;DHT22;32620;51.704;7.822;2023-02-28T10:02:44;8.20;89.40
46416;DHT22;32620;51.704;7.822;2023-02-28T10:05:15;7.10;91.20
46416;DHT22;32620;51.704;7.822;2023-02-28T10:08:08;7.20;91.40
46416;DHT22;32620;51.704;7.822;2023-02-28T10:10:41;7.60;91.80
46416;DHT22;32620;51.704;7.822;2023-02-28T10:13:35;8.10;90.20
46416;DHT22;32620;51.704;7.822;2023-02-28T10:16:08;8.40;90.10
46416;DHT22;32620;51.704;7.822;2023-02-28T10:18:50;8.70;90.50
46416;DHT22;32620;51.704;7.822;2023-02-28T10:21:23;8.70;89.50
46416;DHT22;32620;51.704;7.822;2023-02-28T10:23:56;9.40;89.40
46416;DHT22;32620;51.704;7.822;2023-02-28T10:26:27;9.80;85.90
46416;DHT22;32620;51.704;7.822;2023-02-28T10:28:54;9.80;88.50
46416;DHT22;32620;51.704;7.822;2023-02-28T10:31:20;9.30;86.20
46416;DHT22;32620;51.704;7.822;2023-02-28T10:33:47;9.20;88.10
46416;DHT22;32620;51.704;7.822;2023-02-28T10:36:15;9.40;87.60
46416;DHT22;32620;51.704;7.822;2023-02-28T10:38:42;8.90;87.10
46416;DHT22;32620;51.704;7.822;2023-02-28T10:41:11;9.00;90.70
46416;DHT22;32620;51.704;7.822;2023-02-28T10:43:38;8.10;89.60
46416;DHT22;32620;51.704;7.822;2023-02-28T10:48:43;6.80;92.20
46416;DHT22;32620;51.704;7.822;2023-02-28T10:51:12;6.50;93.10
46416;DHT22;32620;51.704;7.822;2023-02-28T10:53:52;6.70;93.50
46416;DHT22;32620;51.704;7.822;2023-02-28T10:56:21;6.30;94.80
46416;DHT22;32620;51.704;7.822;2023-02-28T11:01:47;6.30;95.60
46416;DHT22;32620;51.704;7.822;2023-02-28T11:04:35;5.80;96.10
46416;DHT22;32620;51.704;7.822;2023-02-28T11:07:19;6.00;97.30
46416;DHT22;32620;51.704;7.822;2023-02-28T11:09:46;6.40;97.60
46416;DHT22;32620;51.704;7.822;2023-02-28T11:12:22;5.70;98.10
46416;DHT22;32620;51.704;7.822;2023-02-28T11:14:54;5.50;99.60
46416;DHT22;32620;51.704;7.822;2023-02-28T11:17:24;5.30;99.90
46416;DHT22;32620;51.704;7.822;2023-02-28T11:19:52;6.50;99.40
46416;DHT22;32620;51.704;7.822;2023-02-28T11:22:22;6.60;98.30
46416;DHT22;32620;51.704;7.822;2023-02-28T11:24:51;7.40;98.80
46416;DHT22;32620;51.704;7.822;2023-02-28T11:27:40;7.20;97.20
46416;DHT22;32620;51.704;7.822;2023-02-28T11:30:41;7.20;97.00
46416;DHT22;32620;51.704;7.822;2023-02-28T11:33:28;6.10;98.10
46416;DHT22;32620;51.704;7.822;2023-02-28T11:36:01;6.00;99.90
46416;DHT22;32620;51.704;7.822;2023-02-28T11:38:27;6.00;98.90
46416;DHT22;32620;51.704;7.822;2023-02-28T11:43:54;6.00;99.70
46416;DHT22;32620;51.704;7.822;2023-02-28T11:46:35;5.60;99.90
46416;DHT22;32620;51.704;7.822;2023-02-28T11:49:15;5.60;99.90
46416;DHT22;32620;51.704;7.822;2023-02-28T11:51:51;5.90;99.90
46416;DHT22;32620;51.704;7.822;2023-02-28T11:57:40;5.90;99.90
46416;DHT22;32620;51.704;7.822;2023-02-28T12:00:32;5.80;99.90
46416;DHT22;32620;51.704;7.822;2023-02-28T12:03:45;5.50;99.90
46416;DHT22;32620;51.704;7.822;2023-02-28T12:11:52;5.10;99.90
46416;DHT22;32620;51.704;7.822;2023-02-28T12:14:45;5.90;99.90
46416;DHT22;32620;51.704;7.822;2023-02-28T12:23:26;5.80;99.90
46416;DHT22;32620;51.704;7.822;2023-02-28T12:26:07;5.50;99.90
46416;DHT22;32620;51.704;7.822;2023-02-28T12:28:41;5.50;99.90
46416;DHT22;32620;51.704;7.822;2023-02-28T12:31:29;5.60;99.90
46416;DHT22;32620;51.704;7.822;2023-02-28T12:34:01;6.00;99.90
46416;DHT22;32620;51.704;7.822;2023-02-28T12:36:28;6.20;99.90
46416;DHT22;32620;51.704;7.822;2023-02-28T12:38:59;6.60;99.90
46416;DHT22;32620;51.704;7.822;2023-02-28T12:41:42;6.70;99.90
46416;DHT22;32620;51.704;7.822;2023-02-28T12:44:22;5.90;99.90
46416;DHT22;32620;51.704;7.822;2023-02-28T12:46:50;5.40;99.90
46416;DHT22;32620;51.704;7.822;2023-02-28T12:49:23;5.10;99.90
46416;DHT22;32620;51.704;7.822;2023-02-28T12:51:51;5.10;99.90
46416;DHT22;32620;51.704;7.822;2023-02-28T12:54:42;5.10;99.90
46416;DHT22;32620;51.704;7.822;2023-02-28T12:57:31;5.20;99.90
46416;DHT22;32620;51.704;7.822;2023-02-28T13:00:08;5.60;99.90
46416;DHT22;32620;51.704;7.822;2023-02-28T13:06:04;5.60;99.90
46416;DHT22;32620;51.704;7.822;2023-02-28T13:08:55;5.70;99.90
46416;DHT22;32620;51.704;7.822;2023-02-28T13:14:16;6.60;99.90
46416;DHT22;32620;51.704;7.822;2023-02-28T13:17:21;6.70;99.90
46416;DHT22;32620;51.704;7.822;2023-02-28T13:19:46;6.30;99.90
46416;DHT22;32620;51.704;7.822;2023-02-28T13:22:45;5.80;99.90
46416;DHT22;32620;51.704;7.822;2023-02-28T13:31:20;5.40;99.90
46416;DHT22;32620;51.704;7.822;2023-02-28T13:36:28;5.40;99.90
46416;DHT22;32620;51.704;7.822;2023-02-28T13:38:59;5.20;99.90
46416;DHT22;32620;51.704;7.822;2023-02-28T13:49:27;5.30;99.90
46416;DHT22;32620;51.704;7.822;2023-02-28T13:55:17;5.80;99.90
46416;DHT22;32620;51.704;7.822;2023-02-28T14:06:54;6.00;99.90
46416;DHT22;32620;51.704;7.822;2023-02-28T14:09:26;5.80;99.90
46416;DHT22;32620;51.704;7.822;2023-02-28T14:11:53;5.30;99.90
46416;DHT22;32620;51.704;7.822;2023-02-28T14:17:17;5.30;99.90
46416;DHT22;32620;51.704;7.822;2023-02-28T14:19:45;5.40;99.90
46416;DHT22;32620;51.704;7.822;2023-02-28T14:22:41;5.50;99.90
46416;DHT22;32620;51.704;7.822;2023-02-28T14:25:22;5.50;99.90
46416;DHT22;32620;51.704;7.822;2023-02-28T14:27:58;5.50;99.90
46416;DHT22;32620;51.704;7.822;2023-02-28T14:30:51;5.60;99.90
46416;DHT22;32620;51.704;7.822;2023-02-28T14:36:21;5.30;99.90
46416;DHT22;32620;51.704;7.822;2023-02-28T14:38:56;5.10;99.90
46416;DHT22;32620;51.704;7.822;2023-02-28T14:41:34;5.40;99.90
46416;DHT22;32620;51.704;7.822;2023-02-28T14:44:13;5.50;99.90
46416;DHT22;32620;51.704;7.822;2023-02-28T14:46:40;5.60;99.90
46416;DHT22;32620;51.704;7.822;2023-02-28T14:49:13;5.50;99.90
46416;DHT22;32620;51.704;7.822;2023-02-28T14:51:40;5.40;99.90
46416;DHT22;32620;51.704;7.822;2023-02-28T14:54:06;5.50;99.90
46416;DHT22;32620;51.704;7.822;2023-02-28T14:56:38;5.50;99.90
46416;DHT22;32620;51.704;7.822;2023-02-28T14:59:05;5.70;99.90
46416;DHT22;32620;51.704;7.822;2023-02-28T15:01:43;5.60;99.90
46416;DHT22;32620;51.704;7.822;2023-02-28T15:04:21;5.50;99.90
46416;DHT22;32620;51.704;7.822;2023-02-28T15:07:08;5.50;99.90
46416;DHT22;32620;51.704;7.822;2023-02-28T15:09:34;5.60;99.90
46416;DHT22;32620;51.704;7.822;2023-02-28T15:11:59;5.60;99.90
46416;DHT22;32620;51.704;7.822;2023-02-28T15:14:26;5.60;99.90
46416;DHT22;32620;51.704;7.822;2023-02-28T15:16:58;5.50;99.90
46416;DHT22;32620;51.704;7.822;2023-02-28T15:19:29;5.60;99.90
46416;DHT22;32620;51.704;7.822;2023-02-28T15:22:01;5.70;99.90
46416;DHT22;32620;51.704;7.822;2023-02-28T15:24:38;5.60;99.90
46416;DHT22;32620;51.704;7.822;2023-02-28T15:27:07;5.60;99.90
46416;DHT22;32620;51.704;7.822;2023-02-28T15:29:48;5.60;99.90
46416;DHT22;32620;51.704;7.822;2023-02-28T15:32:35;5.70;99.90
46416;DHT22;32620;51.704;7.822;2023-02-28T15:38:21;5.50;99.90
46416;DHT22;32620;51.704;7.822;2023-02-28T15:40:54;5.50;99.90
46416;DHT22;32620;51.704;7.822;2023-02-28T15:43:37;5.60;99.90
46416;DHT22;32620;51.704;7.822;2023-02-28T15:46:09;5.60;99.90
46416;DHT22;32620;51.704;7.822;2023-02-28T15:48:53;5.50;99.90
46416;DHT22;32620;51.704;7.822;2023-02-28T15:51:25;5.50;99.90
46416;DHT22;32620;51.704;7.822;2023-02-28T15:53:59;5.50;99.90
46416;DHT22;32620;51.704;7.822;2023-02-28T15:56:28;5.40;99.90
46416;DHT22;32620;51.704;7.822;2023-02-28T15:58:59;5.40;99.90
46416;DHT22;32620;51.704;7.822;2023-02-28T16:01:28;5.40;99.90
46416;DHT22;32620;51.704;7.822;2023-02-28T16:03:58;5.30;99.90
46416;DHT22;32620;51.704;7.822;2023-02-28T16:06:33;5.30;99.90
46416;DHT22;32620;51.704;7.822;2023-02-28T16:08:59;5.30;99.90
46416;DHT22;32620;51.704;7.822;2023-02-28T16:11:25;5.20;99.90
46416;DHT22;32620;51.704;7.822;2023-02-28T16:13:52;5.10;99.90
46416;DHT22;32620;51.704;7.822;2023-02-28T16:16:19;5.10;99.90
46416;DHT22;32620;51.704;7.822;2023-02-28T16:18:46;5.10;99.90
46416;DHT22;32620;51.704;7.822;2023-02-28T16:21:12;5.00;99.90
46416;DHT22;32620;51.704;7.822;2023-02-28T16:23:37;4.90;99.90
46416;DHT22;32620;51.704;7.822;2023-02-28T16:26:03;4.80;99.90
46416;DHT22;32620;51.704;7.822;2023-02-28T16:28:33;4.80;99.90
46416;DHT22;32620;51.704;7.822;2023-02-28T16:31:00;4.80;99.90
46416;DHT22;32620;51.704;7.822;2023-02-28T16:33:28;4.70;99.90
46416;DHT22;32620;51.704;7.822;2023-02-28T16:35:54;4.70;99.90
46416;DHT22;32620;51.704;7.822;2023-02-28T16:38:20;4.70;99.90
46416;DHT22;32620;51.704;7.822;2023-02-28T16:40:46;4.60;99.90
46416;DHT22;32620;51.704;7.822;2023-02-28T16:43:18;4.50;99.90
46416;DHT22;32620;51.704;7.822;2023-02-28T16:45:46;4.40;99.90
46416;DHT22;32620;51.704;7.822;2023-02-28T16:48:15;4.40;99.90
46416;DHT22;32620;51.704;7.822;2023-02-28T16:50:41;4.40;99.90
46416;DHT22;32620;51.704;7.822;2023-02-28T16:53:07;4.30;99.90
46416;DHT22;32620;51.704;7.822;2023-02-28T16:55:34;4.30;99.90
46416;DHT22;32620;51.704;7.822;2023-02-28T16:58:01;4.30;99.90
46416;DHT22;32620;51.704;7.822;2023-02-28T17:00:28;4.20;99.90
46416;DHT22;32620;51.704;7.822;2023-02-28T17:02:55;4.10;99.90
46416;DHT22;32620;51.704;7.822;2023-02-28T17:05:21;3.90;99.90
46416;DHT22;32620;51.704;7.822;2023-02-28T17:07:47;3.80;99.90
46416;DHT22;32620;51.704;7.822;2023-02-28T17:10:18;3.60;99.90
46416;DHT22;32620;51.704;7.822;2023-02-28T17:12:44;3.50;99.90
46416;DHT22;32620;51.704;7.822;2023-02-28T17:15:11;3.60;99.90
46416;DHT22;32620;51.704;7.822;2023-02-28T17:17:37;3.60;99.90
46416;DHT22;32620;51.704;7.822;2023-02-28T17:20:03;3.50;99.90